Willow Run Airport
KYIP : now visible

Airfield :











YOU CAN JOIN US ON...

 
LOGIN :

Register | Disclaimer

   EN    FR    IT 

 









Legend :    VFR   Marginal VFR   IFR   Intensive IFR   Very Intensive IFR
Visi :
Ceiling :
>= 8 km
>= 3000ft
5 to 8 km
1000 to 3000 ft
1500m to 5 km
500 to 1000 ft
800 to 1500m
200 to 500 ft
< 800m
< 200 ft
Symbols :   Thunderstorms  Fog  Heavy snow  Heavy precipitations  Wind > 20 kt






- Airport Elevation : 716 ft
- IATA code : YIP


KYIP - Willow Run

CURRENT METAR :
  • 071153Z 00000KT 10SM CLR 17/14 A3018 RMK AO2 SLP216 T01720139 10172 20128 52010

EXPIRED METARs :
  • 071053Z 00000KT 10SM CLR 13/11 A3017 RMK AO2 SLP213 T01330111
  • 070953Z 00000KT 10SM CLR 13/11 A3016 RMK AO2 SLP209 T01330106

TAF KYIP
Valid from the 07 at 12:00 until the 08 at 12:00 UTC


071142Z 0712/0812 05007KT P6SM SKC
FM072200 12007KT P6SM SCT060
FM080300 VRB03KT P6SM SKC
KZOB FIR / North America



MET'MAP, your aeronautical weather chart ! - Copyright ORBIFLY December 2007 - Disclaimer

ORBIFLY MET'MAP TEAM :

Programming & Development : Alexandra Zaïnal
Concept & original design : Baudouin d'Aumeries
Assistance for programming : Marc-Olivier Méhu
Technical & hardware support : Manuel Goepfert

Contact : metmap@orbifly.com




SOURCES & CREDITS :

   NOAA       Earth
Advisory